sensor_id;sensor_type;location;lat;lon;timestamp;P1;durP1;ratioP1;P2;durP2;ratioP2
36799;SDS011;22752;51.960;5.886;2022-11-15T00:00:25;49.87;;;25.17;;
36799;SDS011;22752;51.960;5.886;2022-11-15T00:02:54;52.67;;;27.73;;
36799;SDS011;22752;51.960;5.886;2022-11-15T00:05:20;49.20;;;25.23;;
36799;SDS011;22752;51.960;5.886;2022-11-15T00:07:46;53.13;;;28.13;;
36799;SDS011;22752;51.960;5.886;2022-11-15T00:10:12;51.03;;;24.87;;
36799;SDS011;22752;51.960;5.886;2022-11-15T00:12:37;50.57;;;26.37;;
36799;SDS011;22752;51.960;5.886;2022-11-15T00:15:03;42.40;;;21.70;;
36799;SDS011;22752;51.960;5.886;2022-11-15T00:17:29;51.83;;;25.87;;
36799;SDS011;22752;51.960;5.886;2022-11-15T00:19:55;54.70;;;27.63;;
36799;SDS011;22752;51.960;5.886;2022-11-15T00:22:20;49.93;;;24.33;;
36799;SDS011;22752;51.960;5.886;2022-11-15T00:24:46;47.07;;;23.53;;
36799;SDS011;22752;51.960;5.886;2022-11-15T00:27:12;49.93;;;27.47;;
36799;SDS011;22752;51.960;5.886;2022-11-15T00:29:38;44.23;;;24.73;;
36799;SDS011;22752;51.960;5.886;2022-11-15T00:32:08;42.70;;;23.60;;
36799;SDS011;22752;51.960;5.886;2022-11-15T00:34:38;44.57;;;23.77;;
36799;SDS011;22752;51.960;5.886;2022-11-15T00:37:04;39.60;;;22.87;;
36799;SDS011;22752;51.960;5.886;2022-11-15T00:39:30;44.00;;;23.83;;
36799;SDS011;22752;51.960;5.886;2022-11-15T00:41:56;34.57;;;23.03;;
36799;SDS011;22752;51.960;5.886;2022-11-15T00:44:21;41.93;;;24.00;;
36799;SDS011;22752;51.960;5.886;2022-11-15T00:46:47;42.60;;;22.60;;
36799;SDS011;22752;51.960;5.886;2022-11-15T00:49:13;39.97;;;23.17;;
36799;SDS011;22752;51.960;5.886;2022-11-15T00:51:38;37.20;;;22.70;;
36799;SDS011;22752;51.960;5.886;2022-11-15T00:54:04;40.67;;;24.50;;
36799;SDS011;22752;51.960;5.886;2022-11-15T00:56:29;39.47;;;24.97;;
36799;SDS011;22752;51.960;5.886;2022-11-15T00:58:55;53.83;;;28.63;;
36799;SDS011;22752;51.960;5.886;2022-11-15T01:01:21;36.27;;;23.37;;
36799;SDS011;22752;51.960;5.886;2022-11-15T01:03:46;37.50;;;22.20;;
36799;SDS011;22752;51.960;5.886;2022-11-15T01:06:12;38.60;;;22.87;;
36799;SDS011;22752;51.960;5.886;2022-11-15T01:08:38;47.60;;;25.10;;
36799;SDS011;22752;51.960;5.886;2022-11-15T01:11:06;33.27;;;22.23;;
36799;SDS011;22752;51.960;5.886;2022-11-15T01:13:34;43.40;;;23.90;;
36799;SDS011;22752;51.960;5.886;2022-11-15T01:16:07;40.73;;;23.20;;
36799;SDS011;22752;51.960;5.886;2022-11-15T01:18:34;42.20;;;24.83;;
36799;SDS011;22752;51.960;5.886;2022-11-15T01:21:04;37.83;;;24.13;;
36799;SDS011;22752;51.960;5.886;2022-11-15T01:23:40;38.53;;;23.50;;
36799;SDS011;22752;51.960;5.886;2022-11-15T01:26:07;37.03;;;23.47;;
36799;SDS011;22752;51.960;5.886;2022-11-15T01:28:36;38.67;;;23.63;;
36799;SDS011;22752;51.960;5.886;2022-11-15T01:31:06;35.77;;;22.07;;
36799;SDS011;22752;51.960;5.886;2022-11-15T01:36:09;36.53;;;23.00;;
36799;SDS011;22752;51.960;5.886;2022-11-15T01:38:37;35.30;;;22.37;;
36799;SDS011;22752;51.960;5.886;2022-11-15T01:41:03;37.37;;;23.80;;
36799;SDS011;22752;51.960;5.886;2022-11-15T01:43:30;34.87;;;23.00;;
36799;SDS011;22752;51.960;5.886;2022-11-15T01:46:04;30.53;;;20.47;;
36799;SDS011;22752;51.960;5.886;2022-11-15T01:48:39;31.30;;;20.85;;
36799;SDS011;22752;51.960;5.886;2022-11-15T01:51:07;28.97;;;20.40;;
36799;SDS011;22752;51.960;5.886;2022-11-15T01:53:35;35.23;;;22.23;;
36799;SDS011;22752;51.960;5.886;2022-11-15T01:56:04;29.83;;;20.13;;
36799;SDS011;22752;51.960;5.886;2022-11-15T01:58:33;35.03;;;21.70;;
36799;SDS011;22752;51.960;5.886;2022-11-15T02:01:00;30.53;;;21.00;;
36799;SDS011;22752;51.960;5.886;2022-11-15T02:03:26;35.07;;;21.10;;
36799;SDS011;22752;51.960;5.886;2022-11-15T02:06:06;31.10;;;20.17;;
36799;SDS011;22752;51.960;5.886;2022-11-15T02:08:33;31.47;;;20.30;;
36799;SDS011;22752;51.960;5.886;2022-11-15T02:10:58;34.20;;;19.47;;
36799;SDS011;22752;51.960;5.886;2022-11-15T02:13:24;32.93;;;20.37;;
36799;SDS011;22752;51.960;5.886;2022-11-15T02:15:53;26.93;;;18.17;;
36799;SDS011;22752;51.960;5.886;2022-11-15T02:18:41;25.80;;;17.63;;
36799;SDS011;22752;51.960;5.886;2022-11-15T02:32:35;24.83;;;19.00;;
36799;SDS011;22752;51.960;5.886;2022-11-15T02:37:52;24.87;;;17.27;;
36799;SDS011;22752;51.960;5.886;2022-11-15T02:41:02;26.07;;;18.10;;
36799;SDS011;22752;51.960;5.886;2022-11-15T02:46:34;24.20;;;17.50;;
36799;SDS011;22752;51.960;5.886;2022-11-15T02:49:24;31.17;;;18.43;;
36799;SDS011;22752;51.960;5.886;2022-11-15T02:51:52;39.93;;;25.77;;
36799;SDS011;22752;51.960;5.886;2022-11-15T02:54:24;30.30;;;19.70;;
36799;SDS011;22752;51.960;5.886;2022-11-15T02:56:52;30.17;;;19.47;;
36799;SDS011;22752;51.960;5.886;2022-11-15T03:02:18;29.93;;;22.13;;
36799;SDS011;22752;51.960;5.886;2022-11-15T03:05:06;26.17;;;19.93;;
36799;SDS011;22752;51.960;5.886;2022-11-15T03:08:08;32.47;;;23.37;;
36799;SDS011;22752;51.960;5.886;2022-11-15T03:10:54;28.83;;;20.47;;
36799;SDS011;22752;51.960;5.886;2022-11-15T03:16:08;29.60;;;21.00;;
36799;SDS011;22752;51.960;5.886;2022-11-15T03:18:41;29.93;;;20.80;;
36799;SDS011;22752;51.960;5.886;2022-11-15T03:21:12;32.27;;;20.97;;
36799;SDS011;22752;51.960;5.886;2022-11-15T03:23:40;26.60;;;19.27;;
36799;SDS011;22752;51.960;5.886;2022-11-15T03:26:07;24.00;;;18.97;;
36799;SDS011;22752;51.960;5.886;2022-11-15T03:28:38;26.77;;;20.20;;
36799;SDS011;22752;51.960;5.886;2022-11-15T03:31:06;25.60;;;18.83;;
36799;SDS011;22752;51.960;5.886;2022-11-15T03:33:54;28.77;;;21.47;;
36799;SDS011;22752;51.960;5.886;2022-11-15T03:36:23;30.23;;;22.03;;
36799;SDS011;22752;51.960;5.886;2022-11-15T03:38:52;34.93;;;23.50;;
36799;SDS011;22752;51.960;5.886;2022-11-15T03:41:23;32.57;;;23.87;;
36799;SDS011;22752;51.960;5.886;2022-11-15T03:43:57;34.35;;;22.83;;
36799;SDS011;22752;51.960;5.886;2022-11-15T03:46:33;27.13;;;20.97;;
36799;SDS011;22752;51.960;5.886;2022-11-15T03:49:12;32.30;;;24.87;;
36799;SDS011;22752;51.960;5.886;2022-11-15T03:51:44;36.47;;;24.00;;
36799;SDS011;22752;51.960;5.886;2022-11-15T03:54:11;33.63;;;23.80;;
36799;SDS011;22752;51.960;5.886;2022-11-15T03:56:38;31.97;;;24.70;;
36799;SDS011;22752;51.960;5.886;2022-11-15T03:59:03;35.07;;;24.47;;
36799;SDS011;22752;51.960;5.886;2022-11-15T04:01:29;34.07;;;23.30;;
36799;SDS011;22752;51.960;5.886;2022-11-15T04:03:55;33.07;;;24.40;;
36799;SDS011;22752;51.960;5.886;2022-11-15T04:06:20;35.30;;;24.10;;
36799;SDS011;22752;51.960;5.886;2022-11-15T04:08:46;32.63;;;22.43;;
36799;SDS011;22752;51.960;5.886;2022-11-15T04:11:11;36.03;;;26.33;;
36799;SDS011;22752;51.960;5.886;2022-11-15T04:13:37;35.13;;;26.03;;
36799;SDS011;22752;51.960;5.886;2022-11-15T04:16:02;36.73;;;25.53;;
36799;SDS011;22752;51.960;5.886;2022-11-15T04:18:28;37.93;;;26.00;;
36799;SDS011;22752;51.960;5.886;2022-11-15T04:20:54;37.73;;;25.87;;
36799;SDS011;22752;51.960;5.886;2022-11-15T04:23:38;35.27;;;26.27;;
36799;SDS011;22752;51.960;5.886;2022-11-15T04:26:14;36.77;;;25.53;;
36799;SDS011;22752;51.960;5.886;2022-11-15T04:28:43;38.23;;;26.20;;
36799;SDS011;22752;51.960;5.886;2022-11-15T04:31:27;34.60;;;25.50;;
36799;SDS011;22752;51.960;5.886;2022-11-15T04:33:53;36.20;;;25.67;;
36799;SDS011;22752;51.960;5.886;2022-11-15T04:36:19;37.87;;;25.07;;
36799;SDS011;22752;51.960;5.886;2022-11-15T04:39:04;40.53;;;25.23;;
36799;SDS011;22752;51.960;5.886;2022-11-15T04:41:30;36.07;;;24.77;;
36799;SDS011;22752;51.960;5.886;2022-11-15T04:43:55;32.43;;;23.33;;
36799;SDS011;22752;51.960;5.886;2022-11-15T04:46:21;34.47;;;25.07;;
36799;SDS011;22752;51.960;5.886;2022-11-15T04:48:48;38.90;;;24.63;;
36799;SDS011;22752;51.960;5.886;2022-11-15T04:51:14;43.37;;;28.23;;
36799;SDS011;22752;51.960;5.886;2022-11-15T04:53:40;34.50;;;26.70;;
36799;SDS011;22752;51.960;5.886;2022-11-15T04:56:06;37.43;;;25.10;;
36799;SDS011;22752;51.960;5.886;2022-11-15T04:58:31;43.67;;;29.23;;
36799;SDS011;22752;51.960;5.886;2022-11-15T05:00:57;32.63;;;24.50;;
36799;SDS011;22752;51.960;5.886;2022-11-15T05:03:23;36.17;;;26.47;;
36799;SDS011;22752;51.960;5.886;2022-11-15T05:06:06;35.50;;;25.27;;
36799;SDS011;22752;51.960;5.886;2022-11-15T05:08:32;35.93;;;25.77;;
36799;SDS011;22752;51.960;5.886;2022-11-15T05:10:58;37.97;;;26.77;;
36799;SDS011;22752;51.960;5.886;2022-11-15T05:13:23;37.90;;;26.10;;
36799;SDS011;22752;51.960;5.886;2022-11-15T05:15:49;36.03;;;24.90;;
36799;SDS011;22752;51.960;5.886;2022-11-15T05:18:15;39.40;;;27.33;;
36799;SDS011;22752;51.960;5.886;2022-11-15T05:20:40;47.33;;;29.20;;
36799;SDS011;22752;51.960;5.886;2022-11-15T05:23:06;41.13;;;27.97;;
36799;SDS011;22752;51.960;5.886;2022-11-15T05:25:32;41.97;;;27.67;;
36799;SDS011;22752;51.960;5.886;2022-11-15T05:27:58;36.27;;;24.73;;
36799;SDS011;22752;51.960;5.886;2022-11-15T05:30:23;39.23;;;26.10;;
36799;SDS011;22752;51.960;5.886;2022-11-15T05:32:49;41.93;;;28.03;;
36799;SDS011;22752;51.960;5.886;2022-11-15T05:38:13;39.40;;;27.60;;
36799;SDS011;22752;51.960;5.886;2022-11-15T05:40:39;46.77;;;30.00;;
36799;SDS011;22752;51.960;5.886;2022-11-15T05:43:05;43.03;;;28.53;;
36799;SDS011;22752;51.960;5.886;2022-11-15T05:45:31;41.93;;;27.10;;
36799;SDS011;22752;51.960;5.886;2022-11-15T05:47:58;42.47;;;28.40;;
36799;SDS011;22752;51.960;5.886;2022-11-15T05:50:29;39.27;;;27.63;;
36799;SDS011;22752;51.960;5.886;2022-11-15T05:52:54;51.60;;;31.90;;
36799;SDS011;22752;51.960;5.886;2022-11-15T05:55:21;48.37;;;29.70;;
36799;SDS011;22752;51.960;5.886;2022-11-15T05:57:46;41.70;;;27.17;;
36799;SDS011;22752;51.960;5.886;2022-11-15T06:00:12;44.43;;;28.03;;
36799;SDS011;22752;51.960;5.886;2022-11-15T06:02:38;42.93;;;28.40;;
36799;SDS011;22752;51.960;5.886;2022-11-15T06:05:04;46.23;;;27.70;;
36799;SDS011;22752;51.960;5.886;2022-11-15T06:07:30;38.10;;;26.63;;
36799;SDS011;22752;51.960;5.886;2022-11-15T06:09:55;38.40;;;25.23;;
36799;SDS011;22752;51.960;5.886;2022-11-15T06:12:21;45.07;;;27.10;;
36799;SDS011;22752;51.960;5.886;2022-11-15T06:14:47;33.93;;;24.10;;
36799;SDS011;22752;51.960;5.886;2022-11-15T06:17:12;40.73;;;26.37;;
36799;SDS011;22752;51.960;5.886;2022-11-15T06:19:38;40.87;;;26.07;;
36799;SDS011;22752;51.960;5.886;2022-11-15T06:22:03;40.50;;;25.73;;
36799;SDS011;22752;51.960;5.886;2022-11-15T06:24:29;34.97;;;23.23;;
36799;SDS011;22752;51.960;5.886;2022-11-15T06:26:55;26.97;;;20.40;;
36799;SDS011;22752;51.960;5.886;2022-11-15T06:29:20;37.83;;;24.07;;
36799;SDS011;22752;51.960;5.886;2022-11-15T06:31:46;28.50;;;21.10;;
36799;SDS011;22752;51.960;5.886;2022-11-15T06:34:12;31.50;;;21.70;;
36799;SDS011;22752;51.960;5.886;2022-11-15T06:36:37;33.10;;;21.33;;
36799;SDS011;22752;51.960;5.886;2022-11-15T06:39:03;31.93;;;22.67;;
36799;SDS011;22752;51.960;5.886;2022-11-15T06:41:29;31.93;;;21.83;;
36799;SDS011;22752;51.960;5.886;2022-11-15T06:43:56;34.67;;;22.43;;
36799;SDS011;22752;51.960;5.886;2022-11-15T06:46:22;29.87;;;21.03;;
36799;SDS011;22752;51.960;5.886;2022-11-15T06:48:50;29.73;;;21.37;;
36799;SDS011;22752;51.960;5.886;2022-11-15T06:51:16;30.10;;;20.90;;
36799;SDS011;22752;51.960;5.886;2022-11-15T06:53:42;31.80;;;21.20;;
36799;SDS011;22752;51.960;5.886;2022-11-15T06:56:07;33.23;;;22.37;;
36799;SDS011;22752;51.960;5.886;2022-11-15T06:58:34;31.63;;;21.00;;
36799;SDS011;22752;51.960;5.886;2022-11-15T07:01:01;32.43;;;21.93;;
36799;SDS011;22752;51.960;5.886;2022-11-15T07:03:29;32.47;;;23.63;;
36799;SDS011;22752;51.960;5.886;2022-11-15T07:05:55;28.27;;;20.93;;
36799;SDS011;22752;51.960;5.886;2022-11-15T07:08:22;27.97;;;20.17;;
36799;SDS011;22752;51.960;5.886;2022-11-15T07:10:48;34.00;;;21.20;;
36799;SDS011;22752;51.960;5.886;2022-11-15T07:13:14;29.23;;;21.37;;
36799;SDS011;22752;51.960;5.886;2022-11-15T07:15:40;30.10;;;20.53;;
36799;SDS011;22752;51.960;5.886;2022-11-15T07:18:06;28.70;;;20.50;;
36799;SDS011;22752;51.960;5.886;2022-11-15T07:20:31;28.57;;;19.87;;
36799;SDS011;22752;51.960;5.886;2022-11-15T07:23:01;33.57;;;22.13;;
36799;SDS011;22752;51.960;5.886;2022-11-15T07:25:27;31.77;;;22.47;;
36799;SDS011;22752;51.960;5.886;2022-11-15T07:27:57;38.07;;;24.47;;
36799;SDS011;22752;51.960;5.886;2022-11-15T07:30:23;31.57;;;21.57;;
36799;SDS011;22752;51.960;5.886;2022-11-15T07:32:53;30.97;;;21.37;;
36799;SDS011;22752;51.960;5.886;2022-11-15T07:35:23;29.37;;;20.40;;
36799;SDS011;22752;51.960;5.886;2022-11-15T07:37:56;31.27;;;20.90;;
36799;SDS011;22752;51.960;5.886;2022-11-15T07:40:24;27.93;;;21.07;;
36799;SDS011;22752;51.960;5.886;2022-11-15T07:42:51;30.43;;;21.17;;
36799;SDS011;22752;51.960;5.886;2022-11-15T07:45:17;32.73;;;21.07;;
36799;SDS011;22752;51.960;5.886;2022-11-15T07:47:46;26.90;;;19.00;;
36799;SDS011;22752;51.960;5.886;2022-11-15T07:50:13;24.17;;;18.73;;
36799;SDS011;22752;51.960;5.886;2022-11-15T07:52:38;28.77;;;19.07;;
36799;SDS011;22752;51.960;5.886;2022-11-15T07:55:04;23.60;;;17.63;;
36799;SDS011;22752;51.960;5.886;2022-11-15T07:57:30;25.50;;;18.43;;
36799;SDS011;22752;51.960;5.886;2022-11-15T07:59:56;24.97;;;18.13;;
36799;SDS011;22752;51.960;5.886;2022-11-15T08:02:21;25.90;;;18.40;;
36799;SDS011;22752;51.960;5.886;2022-11-15T08:04:47;27.30;;;17.97;;
36799;SDS011;22752;51.960;5.886;2022-11-15T08:07:12;26.60;;;19.03;;
36799;SDS011;22752;51.960;5.886;2022-11-15T08:09:38;24.13;;;17.20;;
36799;SDS011;22752;51.960;5.886;2022-11-15T08:12:04;27.93;;;19.37;;
36799;SDS011;22752;51.960;5.886;2022-11-15T08:14:30;29.70;;;20.00;;
36799;SDS011;22752;51.960;5.886;2022-11-15T08:16:56;24.17;;;18.97;;
36799;SDS011;22752;51.960;5.886;2022-11-15T08:19:21;27.60;;;20.33;;
36799;SDS011;22752;51.960;5.886;2022-11-15T08:21:47;28.67;;;19.20;;
36799;SDS011;22752;51.960;5.886;2022-11-15T08:24:13;31.10;;;20.90;;
36799;SDS011;22752;51.960;5.886;2022-11-15T08:26:39;26.03;;;20.30;;
36799;SDS011;22752;51.960;5.886;2022-11-15T08:29:05;29.53;;;19.60;;
36799;SDS011;22752;51.960;5.886;2022-11-15T08:31:33;28.63;;;19.37;;
36799;SDS011;22752;51.960;5.886;2022-11-15T08:34:01;30.97;;;22.10;;
36799;SDS011;22752;51.960;5.886;2022-11-15T08:36:27;27.90;;;20.77;;
36799;SDS011;22752;51.960;5.886;2022-11-15T08:38:52;24.03;;;19.83;;
36799;SDS011;22752;51.960;5.886;2022-11-15T08:41:25;24.23;;;19.43;;
36799;SDS011;22752;51.960;5.886;2022-11-15T08:43:56;27.87;;;21.03;;
36799;SDS011;22752;51.960;5.886;2022-11-15T08:46:22;26.97;;;19.97;;
36799;SDS011;22752;51.960;5.886;2022-11-15T08:48:48;30.30;;;22.30;;
36799;SDS011;22752;51.960;5.886;2022-11-15T08:51:14;23.27;;;18.60;;
36799;SDS011;22752;51.960;5.886;2022-11-15T08:53:39;28.13;;;19.57;;
36799;SDS011;22752;51.960;5.886;2022-11-15T08:56:08;35.10;;;23.33;;
36799;SDS011;22752;51.960;5.886;2022-11-15T08:58:35;28.25;;;20.13;;
36799;SDS011;22752;51.960;5.886;2022-11-15T09:01:02;27.10;;;20.20;;
36799;SDS011;22752;51.960;5.886;2022-11-15T09:03:28;28.15;;;18.92;;
36799;SDS011;22752;51.960;5.886;2022-11-15T09:05:57;25.25;;;19.23;;
36799;SDS011;22752;51.960;5.886;2022-11-15T09:08:24;22.52;;;16.27;;
36799;SDS011;22752;51.960;5.886;2022-11-15T09:10:50;24.77;;;16.30;;
36799;SDS011;22752;51.960;5.886;2022-11-15T09:13:16;22.13;;;15.38;;
36799;SDS011;22752;51.960;5.886;2022-11-15T09:15:42;24.90;;;16.98;;
36799;SDS011;22752;51.960;5.886;2022-11-15T09:18:07;25.77;;;15.70;;
36799;SDS011;22752;51.960;5.886;2022-11-15T09:20:33;18.13;;;13.80;;
36799;SDS011;22752;51.960;5.886;2022-11-15T09:23:02;18.42;;;13.95;;
36799;SDS011;22752;51.960;5.886;2022-11-15T09:25:29;15.88;;;12.63;;
36799;SDS011;22752;51.960;5.886;2022-11-15T09:27:55;20.57;;;13.70;;
36799;SDS011;22752;51.960;5.886;2022-11-15T09:30:22;16.60;;;13.02;;
36799;SDS011;22752;51.960;5.886;2022-11-15T09:32:49;17.77;;;12.63;;
36799;SDS011;22752;51.960;5.886;2022-11-15T09:35:15;18.38;;;12.35;;
36799;SDS011;22752;51.960;5.886;2022-11-15T09:37:41;20.58;;;13.55;;
36799;SDS011;22752;51.960;5.886;2022-11-15T09:40:08;20.08;;;12.82;;
36799;SDS011;22752;51.960;5.886;2022-11-15T09:45:41;41.42;;;29.05;;
36799;SDS011;22752;51.960;5.886;2022-11-15T09:51:08;18.92;;;11.88;;
36799;SDS011;22752;51.960;5.886;2022-11-15T09:56:27;12.50;;;10.25;;
36799;SDS011;22752;51.960;5.886;2022-11-15T09:59:02;13.85;;;10.18;;
36799;SDS011;22752;51.960;5.886;2022-11-15T10:04:33;14.43;;;9.57;;
36799;SDS011;22752;51.960;5.886;2022-11-15T10:07:23;13.38;;;10.02;;
36799;SDS011;22752;51.960;5.886;2022-11-15T10:10:00;15.23;;;9.05;;
36799;SDS011;22752;51.960;5.886;2022-11-15T10:12:40;15.35;;;8.98;;
36799;SDS011;22752;51.960;5.886;2022-11-15T10:15:12;10.95;;;7.47;;
36799;SDS011;22752;51.960;5.886;2022-11-15T10:20:28;10.68;;;7.60;;
36799;SDS011;22752;51.960;5.886;2022-11-15T10:22:56;8.93;;;6.22;;
36799;SDS011;22752;51.960;5.886;2022-11-15T10:27:56;9.95;;;5.63;;
36799;SDS011;22752;51.960;5.886;2022-11-15T10:30:47;9.80;;;6.22;;
36799;SDS011;22752;51.960;5.886;2022-11-15T10:41:20;7.53;;;4.65;;
36799;SDS011;22752;51.960;5.886;2022-11-15T10:46:32;6.90;;;3.88;;
36799;SDS011;22752;51.960;5.886;2022-11-15T10:49:15;7.70;;;3.90;;
36799;SDS011;22752;51.960;5.886;2022-11-15T10:51:47;8.77;;;3.90;;
36799;SDS011;22752;51.960;5.886;2022-11-15T10:54:13;5.65;;;3.70;;
36799;SDS011;22752;51.960;5.886;2022-11-15T10:56:49;4.60;;;3.28;;
36799;SDS011;22752;51.960;5.886;2022-11-15T10:59:26;6.95;;;3.40;;
36799;SDS011;22752;51.960;5.886;2022-11-15T11:01:58;7.18;;;3.58;;
36799;SDS011;22752;51.960;5.886;2022-11-15T11:04:24;5.10;;;3.10;;
36799;SDS011;22752;51.960;5.886;2022-11-15T11:06:57;4.07;;;2.90;;
36799;SDS011;22752;51.960;5.886;2022-11-15T11:11:57;6.28;;;2.38;;
36799;SDS011;22752;51.960;5.886;2022-11-15T11:14:25;6.40;;;2.35;;
36799;SDS011;22752;51.960;5.886;2022-11-15T11:35:30;5.93;;;1.83;;
36799;SDS011;22752;51.960;5.886;2022-11-15T11:41:10;7.57;;;1.85;;
36799;SDS011;22752;51.960;5.886;2022-11-15T11:50:00;3.65;;;1.20;;
36799;SDS011;22752;51.960;5.886;2022-11-15T11:52:02;5.38;;;1.60;;
36799;SDS011;22752;51.960;5.886;2022-11-15T11:57:25;5.38;;;1.77;;
36799;SDS011;22752;51.960;5.886;2022-11-15T12:00:12;6.28;;;1.65;;
36799;SDS011;22752;51.960;5.886;2022-11-15T12:02:47;3.97;;;1.80;;
36799;SDS011;22752;51.960;5.886;2022-11-15T12:05:25;1.95;;;1.52;;
36799;SDS011;22752;51.960;5.886;2022-11-15T12:10:53;3.85;;;1.65;;
36799;SDS011;22752;51.960;5.886;2022-11-15T12:13:30;5.35;;;1.40;;
36799;SDS011;22752;51.960;5.886;2022-11-15T12:16:21;5.55;;;1.58;;
36799;SDS011;22752;51.960;5.886;2022-11-15T12:18:56;6.35;;;1.50;;
36799;SDS011;22752;51.960;5.886;2022-11-15T12:21:27;3.92;;;1.30;;
36799;SDS011;22752;51.960;5.886;2022-11-15T12:24:02;5.47;;;1.65;;
36799;SDS011;22752;51.960;5.886;2022-11-15T12:26:39;5.43;;;1.80;;
36799;SDS011;22752;51.960;5.886;2022-11-15T12:29:51;3.97;;;1.40;;
36799;SDS011;22752;51.960;5.886;2022-11-15T12:32:00;4.10;;;1.48;;
36799;SDS011;22752;51.960;5.886;2022-11-15T12:36:54;3.83;;;1.30;;
36799;SDS011;22752;51.960;5.886;2022-11-15T12:39:20;4.50;;;1.50;;
36799;SDS011;22752;51.960;5.886;2022-11-15T13:02:30;4.00;;;1.48;;
36799;SDS011;22752;51.960;5.886;2022-11-15T13:12:53;3.20;;;1.00;;
36799;SDS011;22752;51.960;5.886;2022-11-15T13:17:57;5.68;;;1.33;;
36799;SDS011;22752;51.960;5.886;2022-11-15T13:20:25;5.85;;;1.30;;
36799;SDS011;22752;51.960;5.886;2022-11-15T13:30:55;3.10;;;1.10;;
36799;SDS011;22752;51.960;5.886;2022-11-15T13:33:35;6.07;;;1.20;;
36799;SDS011;22752;51.960;5.886;2022-11-15T13:36:08;2.85;;;1.10;;
36799;SDS011;22752;51.960;5.886;2022-11-15T13:38:40;6.88;;;1.38;;
36799;SDS011;22752;51.960;5.886;2022-11-15T13:41:18;4.03;;;1.05;;
36799;SDS011;22752;51.960;5.886;2022-11-15T13:43:49;3.38;;;1.08;;
36799;SDS011;22752;51.960;5.886;2022-11-15T13:46:17;4.13;;;1.35;;
36799;SDS011;22752;51.960;5.886;2022-11-15T13:48:50;4.50;;;1.23;;
36799;SDS011;22752;51.960;5.886;2022-11-15T13:51:40;3.15;;;1.20;;
36799;SDS011;22752;51.960;5.886;2022-11-15T13:54:17;3.10;;;1.10;;
36799;SDS011;22752;51.960;5.886;2022-11-15T13:57:10;2.05;;;0.90;;
36799;SDS011;22752;51.960;5.886;2022-11-15T13:59:47;4.43;;;1.13;;
36799;SDS011;22752;51.960;5.886;2022-11-15T14:02:15;4.22;;;0.93;;
36799;SDS011;22752;51.960;5.886;2022-11-15T14:04:50;3.03;;;0.82;;
36799;SDS011;22752;51.960;5.886;2022-11-15T14:07:19;3.40;;;0.85;;
36799;SDS011;22752;51.960;5.886;2022-11-15T14:09:47;3.17;;;1.00;;
36799;SDS011;22752;51.960;5.886;2022-11-15T14:12:49;3.28;;;1.10;;
36799;SDS011;22752;51.960;5.886;2022-11-15T14:15:34;6.25;;;1.15;;
36799;SDS011;22752;51.960;5.886;2022-11-15T14:18:01;4.13;;;0.77;;
36799;SDS011;22752;51.960;5.886;2022-11-15T14:20:29;3.65;;;1.00;;
36799;SDS011;22752;51.960;5.886;2022-11-15T14:22:58;3.88;;;1.27;;
36799;SDS011;22752;51.960;5.886;2022-11-15T14:25:27;4.47;;;1.23;;
36799;SDS011;22752;51.960;5.886;2022-11-15T14:28:27;5.90;;;1.20;;
36799;SDS011;22752;51.960;5.886;2022-11-15T14:30:56;7.28;;;1.63;;
36799;SDS011;22752;51.960;5.886;2022-11-15T14:33:33;3.63;;;1.25;;
36799;SDS011;22752;51.960;5.886;2022-11-15T14:36:04;3.67;;;1.50;;
36799;SDS011;22752;51.960;5.886;2022-11-15T14:38:35;7.53;;;1.67;;
36799;SDS011;22752;51.960;5.886;2022-11-15T14:41:01;4.20;;;1.67;;
36799;SDS011;22752;51.960;5.886;2022-11-15T14:43:27;5.82;;;1.95;;
36799;SDS011;22752;51.960;5.886;2022-11-15T14:45:52;8.32;;;1.83;;
36799;SDS011;22752;51.960;5.886;2022-11-15T14:48:18;4.32;;;2.00;;
36799;SDS011;22752;51.960;5.886;2022-11-15T14:50:44;5.35;;;1.83;;
36799;SDS011;22752;51.960;5.886;2022-11-15T14:53:14;6.95;;;2.00;;
36799;SDS011;22752;51.960;5.886;2022-11-15T14:55:41;5.20;;;1.60;;
36799;SDS011;22752;51.960;5.886;2022-11-15T14:58:07;8.95;;;2.00;;
36799;SDS011;22752;51.960;5.886;2022-11-15T15:00:34;5.30;;;1.73;;
36799;SDS011;22752;51.960;5.886;2022-11-15T15:03:04;5.80;;;2.80;;
36799;SDS011;22752;51.960;5.886;2022-11-15T15:05:38;7.25;;;2.17;;
36799;SDS011;22752;51.960;5.886;2022-11-15T15:08:05;9.88;;;2.10;;
36799;SDS011;22752;51.960;5.886;2022-11-15T15:10:33;2.83;;;1.40;;
36799;SDS011;22752;51.960;5.886;2022-11-15T15:13:10;2.97;;;1.20;;
36799;SDS011;22752;51.960;5.886;2022-11-15T15:15:42;4.28;;;1.52;;
36799;SDS011;22752;51.960;5.886;2022-11-15T15:18:08;4.32;;;1.38;;
36799;SDS011;22752;51.960;5.886;2022-11-15T15:20:40;3.10;;;1.20;;
36799;SDS011;22752;51.960;5.886;2022-11-15T15:23:25;6.35;;;1.55;;
36799;SDS011;22752;51.960;5.886;2022-11-15T15:25:54;5.20;;;1.50;;
36799;SDS011;22752;51.960;5.886;2022-11-15T15:28:19;5.20;;;1.50;;
36799;SDS011;22752;51.960;5.886;2022-11-15T15:30:45;3.05;;;1.35;;
36799;SDS011;22752;51.960;5.886;2022-11-15T15:33:10;7.82;;;1.40;;
36799;SDS011;22752;51.960;5.886;2022-11-15T15:35:36;5.50;;;1.67;;
36799;SDS011;22752;51.960;5.886;2022-11-15T15:38:02;4.97;;;1.73;;
36799;SDS011;22752;51.960;5.886;2022-11-15T15:40:29;5.10;;;1.67;;
36799;SDS011;22752;51.960;5.886;2022-11-15T15:42:56;4.55;;;1.92;;
36799;SDS011;22752;51.960;5.886;2022-11-15T15:45:22;5.45;;;1.40;;
36799;SDS011;22752;51.960;5.886;2022-11-15T15:47:49;4.03;;;1.58;;
36799;SDS011;22752;51.960;5.886;2022-11-15T15:50:24;7.53;;;1.90;;
36799;SDS011;22752;51.960;5.886;2022-11-15T15:52:52;3.83;;;1.85;;
36799;SDS011;22752;51.960;5.886;2022-11-15T15:55:19;4.85;;;1.95;;
36799;SDS011;22752;51.960;5.886;2022-11-15T15:57:45;6.45;;;2.50;;
36799;SDS011;22752;51.960;5.886;2022-11-15T16:00:11;5.25;;;1.83;;
36799;SDS011;22752;51.960;5.886;2022-11-15T16:02:38;5.38;;;1.95;;
36799;SDS011;22752;51.960;5.886;2022-11-15T16:05:04;11.30;;;2.88;;
36799;SDS011;22752;51.960;5.886;2022-11-15T16:07:30;5.22;;;2.08;;
36799;SDS011;22752;51.960;5.886;2022-11-15T16:09:55;5.65;;;2.20;;
36799;SDS011;22752;51.960;5.886;2022-11-15T16:12:31;4.18;;;2.10;;
36799;SDS011;22752;51.960;5.886;2022-11-15T16:14:58;4.57;;;1.98;;
36799;SDS011;22752;51.960;5.886;2022-11-15T16:17:30;6.65;;;2.00;;
36799;SDS011;22752;51.960;5.886;2022-11-15T16:19:59;8.02;;;2.17;;
36799;SDS011;22752;51.960;5.886;2022-11-15T16:22:24;4.63;;;1.90;;
36799;SDS011;22752;51.960;5.886;2022-11-15T16:24:50;4.80;;;1.80;;
36799;SDS011;22752;51.960;5.886;2022-11-15T16:27:17;4.00;;;2.00;;
36799;SDS011;22752;51.960;5.886;2022-11-15T16:29:44;5.18;;;2.33;;
36799;SDS011;22752;51.960;5.886;2022-11-15T16:32:10;6.68;;;2.70;;
36799;SDS011;22752;51.960;5.886;2022-11-15T16:34:36;4.35;;;2.05;;
36799;SDS011;22752;51.960;5.886;2022-11-15T16:37:02;6.22;;;2.05;;
36799;SDS011;22752;51.960;5.886;2022-11-15T16:39:28;6.88;;;1.98;;
36799;SDS011;22752;51.960;5.886;2022-11-15T16:41:55;4.20;;;2.10;;
36799;SDS011;22752;51.960;5.886;2022-11-15T16:44:21;4.22;;;1.80;;
36799;SDS011;22752;51.960;5.886;2022-11-15T16:46:48;4.38;;;1.90;;
36799;SDS011;22752;51.960;5.886;2022-11-15T16:49:16;4.38;;;1.95;;
36799;SDS011;22752;51.960;5.886;2022-11-15T16:51:46;6.72;;;2.72;;
36799;SDS011;22752;51.960;5.886;2022-11-15T16:54:12;6.47;;;2.10;;
36799;SDS011;22752;51.960;5.886;2022-11-15T16:56:39;7.43;;;2.60;;